sensor_id;sensor_type;location;lat;lon;timestamp;pressure;altitude;pressure_sealevel;temperature;humidity
51147;BME280;37207;53.060;18.726;2022-09-30T00:01:34;100131.85;;;6.89;79.62
51147;BME280;37207;53.060;18.726;2022-09-30T00:04:04;100128.90;;;6.84;79.42
51147;BME280;37207;53.060;18.726;2022-09-30T00:06:32;100126.30;;;6.79;79.49
51147;BME280;37207;53.060;18.726;2022-09-30T00:09:00;100134.95;;;6.77;79.62
51147;BME280;37207;53.060;18.726;2022-09-30T00:11:30;100137.17;;;6.78;80.06
51147;BME280;37207;53.060;18.726;2022-09-30T00:13:58;100143.09;;;6.82;79.97
51147;BME280;37207;53.060;18.726;2022-09-30T00:16:28;100143.13;;;6.84;79.87
51147;BME280;37207;53.060;18.726;2022-09-30T00:18:56;100149.16;;;6.86;79.97
51147;BME280;37207;53.060;18.726;2022-09-30T00:21:24;100155.77;;;6.87;79.99
51147;BME280;37207;53.060;18.726;2022-09-30T00:23:51;100156.98;;;6.88;79.82
51147;BME280;37207;53.060;18.726;2022-09-30T00:26:20;100153.60;;;6.88;79.79
51147;BME280;37207;53.060;18.726;2022-09-30T00:28:50;100152.59;;;6.90;80.15
51147;BME280;37207;53.060;18.726;2022-09-30T00:31:17;100144.16;;;6.89;79.92
51147;BME280;37207;53.060;18.726;2022-09-30T00:33:46;100134.17;;;6.83;79.82
51147;BME280;37207;53.060;18.726;2022-09-30T00:36:41;100131.38;;;6.75;79.51
51147;BME280;37207;53.060;18.726;2022-09-30T00:39:14;100133.48;;;6.68;79.48
51147;BME280;37207;53.060;18.726;2022-09-30T00:41:42;100139.04;;;6.63;79.73
51147;BME280;37207;53.060;18.726;2022-09-30T00:44:48;100134.84;;;6.58;79.79
51147;BME280;37207;53.060;18.726;2022-09-30T00:49:52;100134.50;;;6.49;79.73
51147;BME280;37207;53.060;18.726;2022-09-30T00:52:21;100140.25;;;6.47;79.82
51147;BME280;37207;53.060;18.726;2022-09-30T00:54:48;100143.10;;;6.45;79.77
51147;BME280;37207;53.060;18.726;2022-09-30T00:57:17;100147.23;;;6.42;79.75
51147;BME280;37207;53.060;18.726;2022-09-30T00:59:46;100144.07;;;6.41;80.04
51147;BME280;37207;53.060;18.726;2022-09-30T01:02:14;100140.94;;;6.38;80.11
51147;BME280;37207;53.060;18.726;2022-09-30T01:04:42;100138.73;;;6.32;79.79
51147;BME280;37207;53.060;18.726;2022-09-30T01:07:11;100134.48;;;6.26;79.82
51147;BME280;37207;53.060;18.726;2022-09-30T01:09:44;100135.16;;;6.22;79.81
51147;BME280;37207;53.060;18.726;2022-09-30T01:12:13;100136.25;;;6.17;79.78
51147;BME280;37207;53.060;18.726;2022-09-30T01:14:42;100140.38;;;6.14;80.04
51147;BME280;37207;53.060;18.726;2022-09-30T01:17:13;100139.95;;;6.09;79.78
51147;BME280;37207;53.060;18.726;2022-09-30T01:20:19;100141.21;;;6.00;79.81
51147;BME280;37207;53.060;18.726;2022-09-30T01:23:10;100148.80;;;5.99;80.00
51147;BME280;37207;53.060;18.726;2022-09-30T01:31:18;100149.40;;;5.94;80.29
51147;BME280;37207;53.060;18.726;2022-09-30T01:45:17;100143.59;;;5.82;80.35
51147;BME280;37207;53.060;18.726;2022-09-30T01:50:58;100155.80;;;5.83;80.54
51147;BME280;37207;53.060;18.726;2022-09-30T01:53:41;100157.09;;;5.85;80.54
51147;BME280;37207;53.060;18.726;2022-09-30T01:56:21;100161.13;;;5.83;80.23
51147;BME280;37207;53.060;18.726;2022-09-30T01:58:58;100165.91;;;5.83;80.43
51147;BME280;37207;53.060;18.726;2022-09-30T02:04:17;100173.05;;;5.81;80.22
51147;BME280;37207;53.060;18.726;2022-09-30T02:06:51;100180.54;;;5.76;79.90
51147;BME280;37207;53.060;18.726;2022-09-30T02:09:29;100184.59;;;5.70;79.96
51147;BME280;37207;53.060;18.726;2022-09-30T02:12:02;100182.88;;;5.63;80.10
51147;BME280;37207;53.060;18.726;2022-09-30T02:14:39;100174.55;;;5.58;79.82
51147;BME280;37207;53.060;18.726;2022-09-30T02:17:29;100180.79;;;5.55;80.08
51147;BME280;37207;53.060;18.726;2022-09-30T02:20:02;100177.66;;;5.52;80.09
51147;BME280;37207;53.060;18.726;2022-09-30T02:22:44;100183.67;;;5.51;80.09
51147;BME280;37207;53.060;18.726;2022-09-30T02:25:16;100188.46;;;5.52;80.38
51147;BME280;37207;53.060;18.726;2022-09-30T02:27:56;100190.34;;;5.57;80.54
51147;BME280;37207;53.060;18.726;2022-09-30T02:30:24;100187.17;;;5.59;80.47
51147;BME280;37207;53.060;18.726;2022-09-30T02:32:58;100187.79;;;5.60;80.29
51147;BME280;37207;53.060;18.726;2022-09-30T02:35:30;100185.66;;;5.58;80.17
51147;BME280;37207;53.060;18.726;2022-09-30T02:38:04;100186.71;;;5.55;80.07
51147;BME280;37207;53.060;18.726;2022-09-30T02:43:17;100188.42;;;5.53;80.06
51147;BME280;37207;53.060;18.726;2022-09-30T02:45:54;100193.64;;;5.48;79.98
51147;BME280;37207;53.060;18.726;2022-09-30T02:51:41;100189.77;;;5.37;80.06
51147;BME280;37207;53.060;18.726;2022-09-30T02:56:57;100187.67;;;5.28;79.95
51147;BME280;37207;53.060;18.726;2022-09-30T02:59:26;100192.39;;;5.25;79.93
51147;BME280;37207;53.060;18.726;2022-09-30T03:01:53;100194.67;;;5.27;80.28
51147;BME280;37207;53.060;18.726;2022-09-30T03:04:24;100194.34;;;5.28;80.08
51147;BME280;37207;53.060;18.726;2022-09-30T03:06:53;100199.20;;;5.25;79.97
51147;BME280;37207;53.060;18.726;2022-09-30T03:09:24;100206.45;;;5.22;80.04
51147;BME280;37207;53.060;18.726;2022-09-30T03:12:03;100211.67;;;5.19;79.96
51147;BME280;37207;53.060;18.726;2022-09-30T03:14:44;100210.18;;;5.16;79.82
51147;BME280;37207;53.060;18.726;2022-09-30T03:17:30;100215.84;;;5.10;79.73
51147;BME280;37207;53.060;18.726;2022-09-30T03:20:27;100221.73;;;5.06;79.86
51147;BME280;37207;53.060;18.726;2022-09-30T03:26:10;100233.88;;;5.00;80.04
51147;BME280;37207;53.060;18.726;2022-09-30T03:35:11;100224.36;;;5.01;80.27
51147;BME280;37207;53.060;18.726;2022-09-30T03:40:42;100235.48;;;4.93;80.08
51147;BME280;37207;53.060;18.726;2022-09-30T03:43:22;100232.46;;;4.90;80.35
51147;BME280;37207;53.060;18.726;2022-09-30T03:48:36;100237.81;;;4.86;80.41
51147;BME280;37207;53.060;18.726;2022-09-30T03:51:06;100242.52;;;4.85;80.38
51147;BME280;37207;53.060;18.726;2022-09-30T03:53:41;100243.73;;;4.86;80.31
51147;BME280;37207;53.060;18.726;2022-09-30T03:56:12;100249.03;;;4.88;80.63
51147;BME280;37207;53.060;18.726;2022-09-30T03:58:42;100243.98;;;4.89;80.54
51147;BME280;37207;53.060;18.726;2022-09-30T04:01:18;100240.43;;;4.89;80.42
51147;BME280;37207;53.060;18.726;2022-09-30T04:03:48;100243.04;;;4.88;80.42
51147;BME280;37207;53.060;18.726;2022-09-30T04:06:23;100242.04;;;4.89;80.66
51147;BME280;37207;53.060;18.726;2022-09-30T04:08:50;100238.40;;;4.93;80.93
51147;BME280;37207;53.060;18.726;2022-09-30T04:11:19;100236.30;;;4.96;80.87
51147;BME280;37207;53.060;18.726;2022-09-30T04:13:46;100236.01;;;4.96;80.77
51147;BME280;37207;53.060;18.726;2022-09-30T04:16:13;100238.44;;;4.96;80.72
51147;BME280;37207;53.060;18.726;2022-09-30T04:18:41;100241.90;;;4.95;80.72
51147;BME280;37207;53.060;18.726;2022-09-30T04:21:10;100240.05;;;4.95;80.66
51147;BME280;37207;53.060;18.726;2022-09-30T04:23:39;100247.42;;;4.96;80.97
51147;BME280;37207;53.060;18.726;2022-09-30T04:26:10;100250.54;;;5.01;81.16
51147;BME280;37207;53.060;18.726;2022-09-30T04:28:38;100255.95;;;5.04;81.07
51147;BME280;37207;53.060;18.726;2022-09-30T04:31:05;100256.77;;;5.05;80.82
51147;BME280;37207;53.060;18.726;2022-09-30T04:33:33;100261.39;;;5.05;80.80
51147;BME280;37207;53.060;18.726;2022-09-30T04:36:01;100261.00;;;5.05;80.73
51147;BME280;37207;53.060;18.726;2022-09-30T04:38:28;100265.53;;;5.05;80.76
51147;BME280;37207;53.060;18.726;2022-09-30T04:40:56;100260.02;;;5.04;80.95
51147;BME280;37207;53.060;18.726;2022-09-30T04:43:23;100261.77;;;5.00;80.81
51147;BME280;37207;53.060;18.726;2022-09-30T04:45:51;100258.58;;;4.97;80.40
51147;BME280;37207;53.060;18.726;2022-09-30T04:48:19;100259.42;;;4.93;80.52
51147;BME280;37207;53.060;18.726;2022-09-30T04:50:49;100265.06;;;4.90;80.45
51147;BME280;37207;53.060;18.726;2022-09-30T04:53:17;100269.37;;;4.88;80.43
51147;BME280;37207;53.060;18.726;2022-09-30T04:55:44;100278.80;;;4.87;80.44
51147;BME280;37207;53.060;18.726;2022-09-30T04:58:12;100286.16;;;4.87;80.43
51147;BME280;37207;53.060;18.726;2022-09-30T05:00:39;100287.72;;;4.85;80.59
51147;BME280;37207;53.060;18.726;2022-09-30T05:03:06;100287.36;;;4.83;80.47
51147;BME280;37207;53.060;18.726;2022-09-30T05:05:33;100287.50;;;4.80;80.26
51147;BME280;37207;53.060;18.726;2022-09-30T05:08:02;100290.48;;;4.76;80.31
51147;BME280;37207;53.060;18.726;2022-09-30T05:10:29;100291.67;;;4.73;80.27
51147;BME280;37207;53.060;18.726;2022-09-30T05:12:57;100293.58;;;4.72;80.36
51147;BME280;37207;53.060;18.726;2022-09-30T05:15:24;100294.38;;;4.72;80.43
51147;BME280;37207;53.060;18.726;2022-09-30T05:17:52;100300.17;;;4.71;80.61
51147;BME280;37207;53.060;18.726;2022-09-30T05:20:19;100306.65;;;4.72;80.41
51147;BME280;37207;53.060;18.726;2022-09-30T05:22:53;100312.50;;;4.72;80.57
51147;BME280;37207;53.060;18.726;2022-09-30T05:25:21;100310.59;;;4.73;80.58
51147;BME280;37207;53.060;18.726;2022-09-30T05:27:49;100317.00;;;4.75;80.63
51147;BME280;37207;53.060;18.726;2022-09-30T05:30:17;100313.64;;;4.77;80.75
51147;BME280;37207;53.060;18.726;2022-09-30T05:32:44;100313.65;;;4.80;81.00
51147;BME280;37207;53.060;18.726;2022-09-30T05:35:12;100317.31;;;4.90;81.25
51147;BME280;37207;53.060;18.726;2022-09-30T05:37:40;100317.34;;;5.01;81.35
51147;BME280;37207;53.060;18.726;2022-09-30T05:40:09;100315.59;;;5.11;81.17
51147;BME280;37207;53.060;18.726;2022-09-30T05:42:37;100326.18;;;5.21;81.11
51147;BME280;37207;53.060;18.726;2022-09-30T05:45:05;100330.12;;;5.29;81.06
51147;BME280;37207;53.060;18.726;2022-09-30T05:47:33;100328.36;;;5.37;80.87
51147;BME280;37207;53.060;18.726;2022-09-30T05:50:00;100327.38;;;5.45;80.95
51147;BME280;37207;53.060;18.726;2022-09-30T05:52:28;100331.19;;;5.55;80.79
51147;BME280;37207;53.060;18.726;2022-09-30T05:54:55;100333.98;;;5.65;80.81
51147;BME280;37207;53.060;18.726;2022-09-30T05:57:24;100329.06;;;5.77;80.96
51147;BME280;37207;53.060;18.726;2022-09-30T05:59:51;100337.98;;;5.87;80.73
51147;BME280;37207;53.060;18.726;2022-09-30T06:02:19;100327.88;;;5.97;80.49
51147;BME280;37207;53.060;18.726;2022-09-30T06:04:46;100330.59;;;6.08;80.45
51147;BME280;37207;53.060;18.726;2022-09-30T06:07:13;100332.55;;;6.20;80.72
51147;BME280;37207;53.060;18.726;2022-09-30T06:09:40;100340.67;;;6.33;80.64
51147;BME280;37207;53.060;18.726;2022-09-30T06:12:08;100339.31;;;6.45;80.48
51147;BME280;37207;53.060;18.726;2022-09-30T06:14:36;100334.01;;;6.56;80.55
51147;BME280;37207;53.060;18.726;2022-09-30T06:17:03;100338.15;;;6.68;80.80
51147;BME280;37207;53.060;18.726;2022-09-30T06:19:32;100342.27;;;6.80;80.56
51147;BME280;37207;53.060;18.726;2022-09-30T06:21:59;100335.77;;;6.91;80.56
51147;BME280;37207;53.060;18.726;2022-09-30T06:24:27;100337.23;;;7.03;80.56
51147;BME280;37207;53.060;18.726;2022-09-30T06:26:54;100339.42;;;7.16;80.55
51147;BME280;37207;53.060;18.726;2022-09-30T06:29:21;100340.23;;;7.26;80.60
51147;BME280;37207;53.060;18.726;2022-09-30T06:31:48;100345.73;;;7.36;80.24
51147;BME280;37207;53.060;18.726;2022-09-30T06:34:15;100351.55;;;7.45;80.42
51147;BME280;37207;53.060;18.726;2022-09-30T06:36:42;100352.38;;;7.53;80.41
51147;BME280;37207;53.060;18.726;2022-09-30T06:39:09;100351.14;;;7.64;80.39
51147;BME280;37207;53.060;18.726;2022-09-30T06:41:36;100351.87;;;7.71;80.22
51147;BME280;37207;53.060;18.726;2022-09-30T06:44:09;100357.63;;;7.77;80.23
51147;BME280;37207;53.060;18.726;2022-09-30T06:46:38;100367.91;;;7.84;80.21
51147;BME280;37207;53.060;18.726;2022-09-30T06:49:06;100366.91;;;7.92;80.14
51147;BME280;37207;53.060;18.726;2022-09-30T06:51:33;100368.42;;;8.05;80.03
51147;BME280;37207;53.060;18.726;2022-09-30T06:54:02;100368.90;;;8.15;80.00
51147;BME280;37207;53.060;18.726;2022-09-30T06:56:29;100371.45;;;8.29;80.26
51147;BME280;37207;53.060;18.726;2022-09-30T06:58:57;100369.98;;;8.49;80.11
51147;BME280;37207;53.060;18.726;2022-09-30T07:01:24;100377.36;;;8.75;80.07
51147;BME280;37207;53.060;18.726;2022-09-30T07:03:51;100385.98;;;9.04;80.07
51147;BME280;37207;53.060;18.726;2022-09-30T07:06:24;100389.73;;;9.33;79.97
51147;BME280;37207;53.060;18.726;2022-09-30T07:08:54;100385.61;;;9.70;79.81
51147;BME280;37207;53.060;18.726;2022-09-30T07:11:22;100390.64;;;10.07;79.63
51147;BME280;37207;53.060;18.726;2022-09-30T07:13:50;100390.38;;;10.64;79.56
51147;BME280;37207;53.060;18.726;2022-09-30T07:16:18;100391.05;;;11.40;78.88
51147;BME280;37207;53.060;18.726;2022-09-30T07:18:46;100387.70;;;11.85;78.08
51147;BME280;37207;53.060;18.726;2022-09-30T07:21:14;100396.44;;;12.26;77.15
51147;BME280;37207;53.060;18.726;2022-09-30T07:23:45;100396.25;;;12.56;76.65
51147;BME280;37207;53.060;18.726;2022-09-30T07:26:20;100396.73;;;12.79;76.20
51147;BME280;37207;53.060;18.726;2022-09-30T07:28:49;100401.65;;;13.01;75.84
51147;BME280;37207;53.060;18.726;2022-09-30T07:31:22;100401.46;;;13.27;75.15
51147;BME280;37207;53.060;18.726;2022-09-30T07:33:50;100405.20;;;13.85;74.69
51147;BME280;37207;53.060;18.726;2022-09-30T07:36:20;100411.55;;;14.29;74.41
51147;BME280;37207;53.060;18.726;2022-09-30T07:38:50;100415.59;;;14.31;73.58
51147;BME280;37207;53.060;18.726;2022-09-30T07:41:20;100419.67;;;14.16;72.98
51147;BME280;37207;53.060;18.726;2022-09-30T07:43:50;100421.38;;;13.99;72.88
51147;BME280;37207;53.060;18.726;2022-09-30T07:46:20;100418.55;;;13.82;72.93
51147;BME280;37207;53.060;18.726;2022-09-30T07:48:52;100422.00;;;13.67;72.78
51147;BME280;37207;53.060;18.726;2022-09-30T07:51:31;100422.37;;;13.51;72.93
51147;BME280;37207;53.060;18.726;2022-09-30T07:54:04;100421.17;;;13.42;73.22
51147;BME280;37207;53.060;18.726;2022-09-30T07:56:32;100421.99;;;13.41;73.16
51147;BME280;37207;53.060;18.726;2022-09-30T07:59:00;100423.06;;;13.42;73.50
51147;BME280;37207;53.060;18.726;2022-09-30T08:01:28;100422.80;;;13.43;73.37
51147;BME280;37207;53.060;18.726;2022-09-30T08:04:03;100426.93;;;13.44;73.05
51147;BME280;37207;53.060;18.726;2022-09-30T08:06:36;100428.18;;;13.48;73.17
51147;BME280;37207;53.060;18.726;2022-09-30T08:09:04;100429.83;;;13.68;73.38
51147;BME280;37207;53.060;18.726;2022-09-30T08:11:35;100432.37;;;13.93;73.00
51147;BME280;37207;53.060;18.726;2022-09-30T08:14:03;100435.08;;;14.25;72.82
51147;BME280;37207;53.060;18.726;2022-09-30T08:16:31;100433.48;;;14.44;72.72
51147;BME280;37207;53.060;18.726;2022-09-30T08:18:59;100442.55;;;14.58;72.37
51147;BME280;37207;53.060;18.726;2022-09-30T08:21:27;100445.73;;;14.64;72.23
51147;BME280;37207;53.060;18.726;2022-09-30T08:23:56;100436.85;;;14.73;71.63
51147;BME280;37207;53.060;18.726;2022-09-30T08:26:23;100438.89;;;14.78;71.50
51147;BME280;37207;53.060;18.726;2022-09-30T08:28:51;100446.27;;;14.85;71.37
51147;BME280;37207;53.060;18.726;2022-09-30T08:31:22;100454.56;;;14.95;71.43
51147;BME280;37207;53.060;18.726;2022-09-30T08:33:50;100453.61;;;15.03;71.17
51147;BME280;37207;53.060;18.726;2022-09-30T08:36:22;100458.30;;;15.04;71.14
51147;BME280;37207;53.060;18.726;2022-09-30T08:38:50;100456.73;;;15.07;70.95
51147;BME280;37207;53.060;18.726;2022-09-30T08:52:42;100465.05;;;14.88;70.78
51147;BME280;37207;53.060;18.726;2022-09-30T08:55:28;100468.17;;;14.84;71.00
51147;BME280;37207;53.060;18.726;2022-09-30T08:58:01;100472.35;;;14.80;70.84
51147;BME280;37207;53.060;18.726;2022-09-30T09:00:30;100476.33;;;14.76;71.17
51147;BME280;37207;53.060;18.726;2022-09-30T09:02:59;100471.30;;;14.78;71.11
51147;BME280;37207;53.060;18.726;2022-09-30T09:14:12;100476.23;;;15.12;71.22
51147;BME280;37207;53.060;18.726;2022-09-30T09:17:02;100476.56;;;15.38;70.57
51147;BME280;37207;53.060;18.726;2022-09-30T09:19:44;100471.04;;;15.59;70.55
51147;BME280;37207;53.060;18.726;2022-09-30T09:22:12;100471.81;;;15.72;70.18
51147;BME280;37207;53.060;18.726;2022-09-30T09:24:44;100474.88;;;15.77;69.97
51147;BME280;37207;53.060;18.726;2022-09-30T09:27:50;100478.96;;;15.85;69.99
51147;BME280;37207;53.060;18.726;2022-09-30T09:30:24;100479.00;;;16.01;69.10
51147;BME280;37207;53.060;18.726;2022-09-30T09:32:56;100482.31;;;16.11;68.39
51147;BME280;37207;53.060;18.726;2022-09-30T09:35:32;100484.30;;;16.17;68.10
51147;BME280;37207;53.060;18.726;2022-09-30T09:38:26;100482.48;;;16.24;67.27
51147;BME280;37207;53.060;18.726;2022-09-30T09:41:33;100477.02;;;16.31;66.51
51147;BME280;37207;53.060;18.726;2022-09-30T09:44:20;100484.70;;;16.32;65.78
51147;BME280;37207;53.060;18.726;2022-09-30T09:47:01;100486.58;;;16.32;65.46
51147;BME280;37207;53.060;18.726;2022-09-30T09:49:33;100486.84;;;16.35;65.34
51147;BME280;37207;53.060;18.726;2022-09-30T09:54:42;100479.98;;;16.50;65.10
51147;BME280;37207;53.060;18.726;2022-09-30T09:57:15;100480.30;;;16.67;64.94
51147;BME280;37207;53.060;18.726;2022-09-30T10:00:05;100474.54;;;16.83;64.25
51147;BME280;37207;53.060;18.726;2022-09-30T10:03:04;100477.78;;;16.97;64.16
51147;BME280;37207;53.060;18.726;2022-09-30T10:05:35;100473.79;;;17.03;63.70
51147;BME280;37207;53.060;18.726;2022-09-30T10:11:00;100482.59;;;17.25;63.09
51147;BME280;37207;53.060;18.726;2022-09-30T10:13:41;100475.56;;;17.37;62.97
51147;BME280;37207;53.060;18.726;2022-09-30T10:16:31;100475.09;;;17.53;62.68
51147;BME280;37207;53.060;18.726;2022-09-30T10:18:58;100474.00;;;17.57;62.21
51147;BME280;37207;53.060;18.726;2022-09-30T10:21:27;100481.33;;;17.57;62.32
51147;BME280;37207;53.060;18.726;2022-09-30T10:23:55;100482.94;;;17.47;61.82
51147;BME280;37207;53.060;18.726;2022-09-30T10:26:25;100482.83;;;17.34;61.67
51147;BME280;37207;53.060;18.726;2022-09-30T10:29:01;100483.11;;;17.21;61.88
51147;BME280;37207;53.060;18.726;2022-09-30T10:31:36;100479.33;;;17.05;61.68
51147;BME280;37207;53.060;18.726;2022-09-30T10:36:41;100479.89;;;16.83;61.66
51147;BME280;37207;53.060;18.726;2022-09-30T10:39:26;100482.27;;;16.79;61.62
51147;BME280;37207;53.060;18.726;2022-09-30T10:42:16;100485.27;;;16.80;61.78
51147;BME280;37207;53.060;18.726;2022-09-30T10:44:51;100476.63;;;16.84;61.16
51147;BME280;37207;53.060;18.726;2022-09-30T10:47:21;100479.65;;;16.89;60.88
51147;BME280;37207;53.060;18.726;2022-09-30T10:50:13;100477.20;;;17.02;60.82
51147;BME280;37207;53.060;18.726;2022-09-30T10:57:50;100474.23;;;17.81;60.23
51147;BME280;37207;53.060;18.726;2022-09-30T11:00:21;100473.14;;;18.06;59.55
51147;BME280;37207;53.060;18.726;2022-09-30T11:02:55;100474.35;;;18.25;58.80
51147;BME280;37207;53.060;18.726;2022-09-30T11:05:28;100472.88;;;18.57;58.97
51147;BME280;37207;53.060;18.726;2022-09-30T11:18:51;100471.20;;;20.43;54.49
51147;BME280;37207;53.060;18.726;2022-09-30T11:24:47;100463.42;;;21.62;52.90
51147;BME280;37207;53.060;18.726;2022-09-30T11:29:51;100468.68;;;21.43;51.71
51147;BME280;37207;53.060;18.726;2022-09-30T11:35:44;100465.73;;;20.84;50.76
51147;BME280;37207;53.060;18.726;2022-09-30T11:46:21;100465.88;;;20.29;51.02
51147;BME280;37207;53.060;18.726;2022-09-30T11:51:46;100467.06;;;20.28;50.60
51147;BME280;37207;53.060;18.726;2022-09-30T11:56:56;100465.58;;;20.23;49.91
51147;BME280;37207;53.060;18.726;2022-09-30T11:59:32;100466.68;;;20.08;50.01
51147;BME280;37207;53.060;18.726;2022-09-30T12:02:17;100462.57;;;19.97;49.78
51147;BME280;37207;53.060;18.726;2022-09-30T12:04:47;100462.92;;;19.95;49.64
51147;BME280;37207;53.060;18.726;2022-09-30T12:07:19;100464.12;;;19.91;49.35
51147;BME280;37207;53.060;18.726;2022-09-30T12:09:53;100461.27;;;19.94;49.22
51147;BME280;37207;53.060;18.726;2022-09-30T12:12:23;100465.78;;;19.97;48.63
51147;BME280;37207;53.060;18.726;2022-09-30T12:14:56;100463.34;;;19.86;48.16
51147;BME280;37207;53.060;18.726;2022-09-30T12:20:14;100472.67;;;19.54;49.21
51147;BME280;37207;53.060;18.726;2022-09-30T12:22:45;100468.23;;;19.30;48.39
51147;BME280;37207;53.060;18.726;2022-09-30T12:25:38;100463.98;;;19.16;48.58
51147;BME280;37207;53.060;18.726;2022-09-30T12:36:51;100455.41;;;18.53;49.49
51147;BME280;37207;53.060;18.726;2022-09-30T12:47:59;100451.73;;;18.09;50.98
51147;BME280;37207;53.060;18.726;2022-09-30T12:50:39;100452.73;;;17.98;51.35
51147;BME280;37207;53.060;18.726;2022-09-30T12:53:19;100446.15;;;17.87;51.37
51147;BME280;37207;53.060;18.726;2022-09-30T12:55:50;100446.22;;;17.74;51.59
51147;BME280;37207;53.060;18.726;2022-09-30T12:58:24;100440.09;;;17.73;51.95
51147;BME280;37207;53.060;18.726;2022-09-30T13:01:04;100446.48;;;17.84;52.22
51147;BME280;37207;53.060;18.726;2022-09-30T13:09:21;100447.84;;;17.82;51.93
51147;BME280;37207;53.060;18.726;2022-09-30T13:14:36;100445.34;;;17.61;52.47
51147;BME280;37207;53.060;18.726;2022-09-30T13:19:48;100443.98;;;17.43;53.07
51147;BME280;37207;53.060;18.726;2022-09-30T13:32:44;100454.35;;;16.82;53.87
51147;BME280;37207;53.060;18.726;2022-09-30T13:35:48;100451.95;;;16.71;53.79
51147;BME280;37207;53.060;18.726;2022-09-30T13:38:20;100450.73;;;16.58;53.79
51147;BME280;37207;53.060;18.726;2022-09-30T13:44:03;100447.00;;;16.48;54.27
51147;BME280;37207;53.060;18.726;2022-09-30T13:49:32;100442.35;;;16.45;54.38
51147;BME280;37207;53.060;18.726;2022-09-30T13:52:02;100440.98;;;16.42;54.00
51147;BME280;37207;53.060;18.726;2022-09-30T13:54:38;100442.40;;;16.35;53.91
51147;BME280;37207;53.060;18.726;2022-09-30T13:57:16;100445.32;;;16.41;54.51
51147;BME280;37207;53.060;18.726;2022-09-30T14:00:18;100448.08;;;16.43;54.74
51147;BME280;37207;53.060;18.726;2022-09-30T14:03:36;100451.38;;;16.38;54.62
51147;BME280;37207;53.060;18.726;2022-09-30T14:06:25;100453.10;;;16.30;54.66
51147;BME280;37207;53.060;18.726;2022-09-30T14:12:08;100454.54;;;16.12;54.99
51147;BME280;37207;53.060;18.726;2022-09-30T14:22:43;100469.16;;;15.71;55.80
51147;BME280;37207;53.060;18.726;2022-09-30T14:25:16;100469.96;;;15.65;56.27
51147;BME280;37207;53.060;18.726;2022-09-30T14:28:03;100469.48;;;15.62;56.46
51147;BME280;37207;53.060;18.726;2022-09-30T14:30:41;100464.27;;;15.58;56.59
51147;BME280;37207;53.060;18.726;2022-09-30T14:33:29;100466.01;;;15.50;56.13
51147;BME280;37207;53.060;18.726;2022-09-30T14:36:28;100468.69;;;15.45;56.03
51147;BME280;37207;53.060;18.726;2022-09-30T14:38:57;100466.52;;;15.44;56.40
51147;BME280;37207;53.060;18.726;2022-09-30T14:41:25;100469.21;;;15.43;56.41
51147;BME280;37207;53.060;18.726;2022-09-30T14:43:58;100473.27;;;15.43;56.56
51147;BME280;37207;53.060;18.726;2022-09-30T14:46:37;100469.15;;;15.45;56.73
51147;BME280;37207;53.060;18.726;2022-09-30T14:49:14;100466.41;;;15.41;56.77
51147;BME280;37207;53.060;18.726;2022-09-30T14:51:45;100466.46;;;15.31;56.71
51147;BME280;37207;53.060;18.726;2022-09-30T14:54:22;100472.13;;;15.21;57.04
51147;BME280;37207;53.060;18.726;2022-09-30T14:56:50;100468.36;;;15.13;57.48
51147;BME280;37207;53.060;18.726;2022-09-30T15:01:50;100468.70;;;14.98;57.78
51147;BME280;37207;53.060;18.726;2022-09-30T15:04:34;100472.40;;;14.87;58.10
51147;BME280;37207;53.060;18.726;2022-09-30T15:07:09;100481.00;;;14.80;58.37
51147;BME280;37207;53.060;18.726;2022-09-30T15:09:42;100482.01;;;14.72;58.91
51147;BME280;37207;53.060;18.726;2022-09-30T15:14:54;100475.16;;;14.63;59.92
51147;BME280;37207;53.060;18.726;2022-09-30T15:19:55;100471.70;;;14.58;60.20
51147;BME280;37207;53.060;18.726;2022-09-30T15:22:22;100476.00;;;14.57;60.28
51147;BME280;37207;53.060;18.726;2022-09-30T15:24:50;100477.55;;;14.54;60.38
51147;BME280;37207;53.060;18.726;2022-09-30T15:27:21;100476.98;;;14.50;60.32
51147;BME280;37207;53.060;18.726;2022-09-30T15:30:02;100475.03;;;14.46;60.36
51147;BME280;37207;53.060;18.726;2022-09-30T15:32:32;100475.75;;;14.41;60.65
51147;BME280;37207;53.060;18.726;2022-09-30T15:35:06;100477.77;;;14.38;60.81
51147;BME280;37207;53.060;18.726;2022-09-30T15:37:34;100482.52;;;14.33;61.23
51147;BME280;37207;53.060;18.726;2022-09-30T15:40:01;100484.16;;;14.26;61.28
51147;BME280;37207;53.060;18.726;2022-09-30T15:42:58;100485.02;;;14.16;61.02
51147;BME280;37207;53.060;18.726;2022-09-30T15:45:31;100481.06;;;14.09;61.17
51147;BME280;37207;53.060;18.726;2022-09-30T15:50:45;100481.85;;;13.92;61.66
51147;BME280;37207;53.060;18.726;2022-09-30T15:53:20;100481.06;;;13.81;61.84
51147;BME280;37207;53.060;18.726;2022-09-30T15:55:51;100483.91;;;13.69;62.07
51147;BME280;37207;53.060;18.726;2022-09-30T16:01:15;100484.80;;;13.45;62.52
51147;BME280;37207;53.060;18.726;2022-09-30T16:03:54;100493.05;;;13.31;62.78
51147;BME280;37207;53.060;18.726;2022-09-30T16:06:35;100492.30;;;13.17;62.97
51147;BME280;37207;53.060;18.726;2022-09-30T16:12:04;100497.55;;;12.91;63.65
51147;BME280;37207;53.060;18.726;2022-09-30T16:14:43;100500.86;;;12.78;63.84
51147;BME280;37207;53.060;18.726;2022-09-30T16:17:30;100503.26;;;12.66;64.13
51147;BME280;37207;53.060;18.726;2022-09-30T16:20:01;100507.08;;;12.55;64.31
51147;BME280;37207;53.060;18.726;2022-09-30T16:27:37;100514.20;;;12.19;65.60
51147;BME280;37207;53.060;18.726;2022-09-30T16:30:05;100510.23;;;12.07;65.74
51147;BME280;37207;53.060;18.726;2022-09-30T16:32:39;100511.49;;;11.96;66.01